createdAt,value
2019-05-13T00:02:04.643Z,6.60
2019-05-13T00:04:34.527Z,7.97
2019-05-13T00:07:04.861Z,7.97
2019-05-13T00:09:34.582Z,7.67
2019-05-13T00:12:04.865Z,8.47
2019-05-13T00:14:34.650Z,9.00
2019-05-13T00:17:04.517Z,8.07
2019-05-13T00:19:34.127Z,8.00
2019-05-13T00:22:04.072Z,8.03
2019-05-13T00:24:34.156Z,8.53
2019-05-13T00:27:04.223Z,8.50
2019-05-13T00:29:34.181Z,8.47
2019-05-13T00:32:04.705Z,8.57
2019-05-13T00:34:35.038Z,9.70
2019-05-13T00:37:10.818Z,9.23
2019-05-13T00:39:35.990Z,9.80
2019-05-13T00:42:05.663Z,9.93
2019-05-13T00:44:35.267Z,8.97
2019-05-13T00:47:04.885Z,9.13
2019-05-13T00:49:34.826Z,10.03
2019-05-13T00:52:04.584Z,9.33
2019-05-13T00:54:34.432Z,9.40
2019-05-13T00:57:04.444Z,8.90
2019-05-13T00:59:34.280Z,9.43
2019-05-13T01:02:04.163Z,9.20
2019-05-13T01:04:34.080Z,8.97
2019-05-13T01:07:04.442Z,8.90
2019-05-13T01:09:34.397Z,8.87
2019-05-13T01:12:04.506Z,8.50
2019-05-13T01:14:34.570Z,8.40
2019-05-13T01:17:04.249Z,8.37
2019-05-13T01:19:34.369Z,8.50
2019-05-13T01:22:04.104Z,7.87
2019-05-13T01:24:34.047Z,5.83
2019-05-13T01:27:04.283Z,5.67
2019-05-13T01:29:34.495Z,6.93
2019-05-13T01:32:04.759Z,4.50
2019-05-13T01:34:34.485Z,5.53
2019-05-13T01:37:04.471Z,3.70
2019-05-13T01:39:34.971Z,4.23
2019-05-13T01:42:04.719Z,3.33
2019-05-13T01:44:34.285Z,3.73
2019-05-13T01:47:04.469Z,2.93
2019-05-13T01:49:34.364Z,3.53
2019-05-13T01:52:04.228Z,2.60
2019-05-13T01:54:34.175Z,3.37
2019-05-13T01:57:04.521Z,2.87
2019-05-13T01:59:34.763Z,2.80
2019-05-13T02:02:05.498Z,4.50
2019-05-13T02:04:35.116Z,3.90
2019-05-13T02:07:04.673Z,3.00
2019-05-13T02:09:34.713Z,4.07
2019-05-13T02:12:05.052Z,2.93
2019-05-13T02:14:34.761Z,6.40
2019-05-13T02:17:04.588Z,8.30
2019-05-13T02:19:34.138Z,3.33
2019-05-13T02:22:04.261Z,2.90
2019-05-13T02:24:34.374Z,4.43
2019-05-13T02:27:04.159Z,4.50
2019-05-13T02:29:34.465Z,4.43
2019-05-13T02:32:04.233Z,3.43
2019-05-13T02:34:33.801Z,4.37
2019-05-13T02:37:03.697Z,3.63
2019-05-13T02:39:33.546Z,2.07
2019-05-13T02:42:03.954Z,3.40
2019-05-13T02:44:33.784Z,1.77
2019-05-13T02:47:03.927Z,3.63
2019-05-13T02:49:33.812Z,2.17
2019-05-13T02:52:03.448Z,3.27
2019-05-13T02:54:34.505Z,2.20
2019-05-13T02:57:04.493Z,2.13
2019-05-13T02:59:34.158Z,3.73
2019-05-13T03:02:04.346Z,3.43
2019-05-13T03:04:34.154Z,3.87
2019-05-13T03:07:03.802Z,4.87
2019-05-13T03:09:33.487Z,3.43
2019-05-13T03:12:04.252Z,3.27
2019-05-13T03:14:34.187Z,3.00
2019-05-13T03:17:18.287Z,4.47
2019-05-13T03:19:47.868Z,4.53
2019-05-13T03:22:17.544Z,3.73
2019-05-13T03:24:47.205Z,3.93
2019-05-13T03:27:20.243Z,5.93
2019-05-13T03:29:48.129Z,5.57
2019-05-13T03:32:17.733Z,4.43
2019-05-13T03:34:47.359Z,4.10
2019-05-13T03:37:17.031Z,4.40
2019-05-13T03:39:47.875Z,3.90
2019-05-13T03:42:17.464Z,4.53
2019-05-13T03:44:52.468Z,5.30
2019-05-13T03:47:23.936Z,5.47
2019-05-13T03:49:58.658Z,4.60
2019-05-13T03:52:28.345Z,4.80
2019-05-13T03:54:58.020Z,5.77
2019-05-13T03:57:28.290Z,5.70
2019-05-13T03:59:58.069Z,4.77
2019-05-13T04:02:28.028Z,5.50
2019-05-13T04:04:59.202Z,5.43
2019-05-13T04:07:32.422Z,5.80
2019-05-13T04:10:03.293Z,5.13
2019-05-13T04:12:33.344Z,4.70
2019-05-13T04:15:04.041Z,6.13
2019-05-13T04:17:33.767Z,6.70
2019-05-13T04:20:03.696Z,6.30
2019-05-13T04:22:33.472Z,8.53
2019-05-13T04:25:03.142Z,8.07
2019-05-13T04:27:33.581Z,8.17
2019-05-13T04:30:03.894Z,10.27
2019-05-13T04:32:33.818Z,9.73
2019-05-13T04:35:04.374Z,9.40
2019-05-13T04:37:34.229Z,11.40
2019-05-13T04:40:04.412Z,11.90
2019-05-13T04:42:34.053Z,12.13
2019-05-13T04:45:04.255Z,13.77
2019-05-13T04:47:34.031Z,12.40
2019-05-13T04:50:03.793Z,10.43
2019-05-13T04:52:33.446Z,11.40
2019-05-13T04:55:03.680Z,12.10
2019-05-13T04:57:33.480Z,12.43
2019-05-13T05:00:04.033Z,11.50
2019-05-13T05:03:32.981Z,11.00
2019-05-13T05:06:16.083Z,12.13
2019-05-13T05:09:22.533Z,13.30
2019-05-13T05:12:23.416Z,14.67
2019-05-13T05:15:37.257Z,14.77
2019-05-13T05:18:33.316Z,15.90
2019-05-13T05:21:14.181Z,16.87
2019-05-13T05:24:18.052Z,18.20
2019-05-13T05:27:14.591Z,17.47
2019-05-13T05:30:26.427Z,17.73
2019-05-13T05:33:12.552Z,19.27
2019-05-13T05:36:01.908Z,19.50
2019-05-13T05:38:57.524Z,20.03
2019-05-13T05:41:31.732Z,22.77
2019-05-13T05:44:02.849Z,22.07
2019-05-13T05:46:34.301Z,21.33
2019-05-13T05:49:07.808Z,22.13
2019-05-13T05:51:41.778Z,23.43
2019-05-13T05:54:14.764Z,25.20
2019-05-13T05:56:45.301Z,25.33
2019-05-13T05:59:14.887Z,24.93
2019-05-13T06:01:47.671Z,24.30
2019-05-13T06:04:17.460Z,23.67
2019-05-13T06:06:48.089Z,23.27
2019-05-13T06:09:17.826Z,23.33
2019-05-13T06:11:47.502Z,22.33
2019-05-13T06:14:17.175Z,21.47
2019-05-13T06:16:46.735Z,22.53
2019-05-13T06:19:17.958Z,23.23
2019-05-13T06:21:47.952Z,22.27
2019-05-13T06:24:17.805Z,22.07
2019-05-13T06:26:47.535Z,23.00
2019-05-13T06:29:17.225Z,14.50
2019-05-13T06:31:47.029Z,22.17
2019-05-13T06:34:17.008Z,21.80
2019-05-13T06:36:46.612Z,20.93
2019-05-13T06:39:16.319Z,22.80
2019-05-13T06:41:45.902Z,20.47
2019-05-13T06:44:15.536Z,21.67
2019-05-13T06:46:45.111Z,30.87
2019-05-13T06:49:14.676Z,19.40
2019-05-13T06:51:44.262Z,19.50
2019-05-13T06:54:13.818Z,18.00
2019-05-13T06:56:43.452Z,19.97
2019-05-13T06:59:13.013Z,21.13
2019-05-13T07:01:42.655Z,20.27
2019-05-13T07:04:13.192Z,19.37
2019-05-13T07:06:42.760Z,18.57
2019-05-13T07:09:12.399Z,20.13
2019-05-13T07:11:42.036Z,21.00
2019-05-13T07:14:12.786Z,18.77
2019-05-13T07:16:42.547Z,17.73
2019-05-13T07:19:12.129Z,18.27
2019-05-13T07:21:41.988Z,19.13
2019-05-13T07:24:12.787Z,19.53
2019-05-13T07:26:42.572Z,26.17
2019-05-13T07:29:12.963Z,20.13
2019-05-13T07:31:43.295Z,23.63
2019-05-13T07:34:12.942Z,25.97
2019-05-13T07:36:42.802Z,21.93
2019-05-13T07:39:12.481Z,22.30
2019-05-13T07:41:43.154Z,19.00
2019-05-13T07:44:13.030Z,17.97
2019-05-13T07:46:42.960Z,15.60
2019-05-13T07:49:12.569Z,12.93
2019-05-13T07:51:42.283Z,16.37
2019-05-13T07:54:11.819Z,17.07
2019-05-13T07:56:42.634Z,17.63
2019-05-13T07:59:12.611Z,15.97
2019-05-13T08:01:42.218Z,18.20
2019-05-13T08:04:21.925Z,17.83
2019-05-13T08:06:43.133Z,19.23
2019-05-13T08:09:12.993Z,18.33
2019-05-13T08:12:00.156Z,17.53
2019-05-13T08:14:13.972Z,18.80
2019-05-13T08:16:43.645Z,16.00
2019-05-13T08:19:13.251Z,23.27
2019-05-13T08:21:42.855Z,25.37
2019-05-13T08:24:12.491Z,20.23
2019-05-13T08:26:45.079Z,15.77
2019-05-13T08:29:13.487Z,13.30
2019-05-13T08:31:43.097Z,16.07
2019-05-13T08:34:12.705Z,27.20
2019-05-13T08:36:42.898Z,12.87
2019-05-13T08:39:12.925Z,15.87
2019-05-13T08:41:42.641Z,14.23
2019-05-13T08:44:12.545Z,12.90
2019-05-13T08:46:42.257Z,10.53
2019-05-13T08:49:12.132Z,9.90
2019-05-13T08:51:42.277Z,11.67
2019-05-13T08:54:12.164Z,10.87
2019-05-13T08:56:41.916Z,9.70
2019-05-13T08:59:11.692Z,7.70
2019-05-13T09:01:42.776Z,10.10
2019-05-13T09:04:12.557Z,10.77
2019-05-13T09:06:42.357Z,8.40
2019-05-13T09:09:12.025Z,7.03
2019-05-13T09:11:42.326Z,5.93
2019-05-13T09:14:12.042Z,5.60
2019-05-13T09:16:42.051Z,6.27
2019-05-13T09:19:15.893Z,5.40
2019-05-13T09:21:43.048Z,5.80
2019-05-13T09:24:24.650Z,5.83
2019-05-13T09:26:44.018Z,5.40
2019-05-13T09:29:13.606Z,4.87
2019-05-13T09:31:43.182Z,5.00
2019-05-13T09:34:12.771Z,5.80
2019-05-13T09:36:42.352Z,6.17
2019-05-13T09:39:12.816Z,5.23
2019-05-13T09:41:44.614Z,4.73
2019-05-13T09:44:13.729Z,5.60
2019-05-13T09:46:43.359Z,6.23
2019-05-13T09:49:19.791Z,3.83
2019-05-13T09:51:44.305Z,4.33
2019-05-13T09:54:13.893Z,4.43
2019-05-13T09:56:43.549Z,4.07
2019-05-13T09:59:13.151Z,5.00
2019-05-13T10:01:42.796Z,5.37
2019-05-13T10:04:12.432Z,4.90
2019-05-13T10:06:42.332Z,4.93
2019-05-13T10:11:43.228Z,5.10
2019-05-13T10:14:11.817Z,5.07
2019-05-13T10:16:42.496Z,23.33
2019-05-13T10:19:12.920Z,8.00
2019-05-13T10:21:42.610Z,9.10
2019-05-13T10:24:13.013Z,5.47
2019-05-13T10:26:42.896Z,7.77
2019-05-13T10:29:12.901Z,6.13
2019-05-13T10:31:44.211Z,6.60
2019-05-13T10:34:14.328Z,30.67
2019-05-13T10:36:44.115Z,6.77
2019-05-13T10:39:13.956Z,6.10
2019-05-13T10:41:43.553Z,7.70
2019-05-13T10:44:13.146Z,6.40
2019-05-13T10:46:42.849Z,9.37
2019-05-13T10:49:12.525Z,4.87
2019-05-13T10:51:42.158Z,5.00
2019-05-13T10:54:11.793Z,4.80
2019-05-13T10:56:43.025Z,6.90
2019-05-13T10:59:12.961Z,5.60
2019-05-13T11:01:42.912Z,4.07
2019-05-13T11:04:13.717Z,4.73
2019-05-13T11:06:43.636Z,5.33
2019-05-13T11:09:13.408Z,4.93
2019-05-13T11:11:43.037Z,4.70
2019-05-13T11:14:15.498Z,4.00
2019-05-13T11:16:43.994Z,4.73
2019-05-13T11:19:13.614Z,4.80
2019-05-13T11:21:44.486Z,5.80
2019-05-13T11:24:14.323Z,5.47
2019-05-13T11:26:43.934Z,5.20
2019-05-13T11:29:13.492Z,5.67
2019-05-13T11:31:43.241Z,5.00
2019-05-13T11:34:12.887Z,6.03
2019-05-13T11:36:43.446Z,5.97
2019-05-13T11:39:13.315Z,7.57
2019-05-13T11:41:43.022Z,6.47
2019-05-13T11:44:16.651Z,5.90
2019-05-13T11:46:44.033Z,9.87
2019-05-13T11:49:13.572Z,5.80
2019-05-13T11:51:43.451Z,5.60
2019-05-13T11:54:13.900Z,6.33
2019-05-13T11:56:49.366Z,6.03
2019-05-13T11:59:15.411Z,6.97
2019-05-13T12:01:44.998Z,5.93
2019-05-13T12:04:14.614Z,6.17
2019-05-13T12:06:49.126Z,5.47
2019-05-13T12:09:21.989Z,13.70
2019-05-13T12:11:50.162Z,4.97
2019-05-13T12:16:51.074Z,5.10
2019-05-13T12:19:21.924Z,5.30
2019-05-13T12:21:54.141Z,4.70
2019-05-13T12:24:23.021Z,5.57
2019-05-13T12:26:53.160Z,5.73
2019-05-13T12:29:22.999Z,5.53
2019-05-13T12:31:52.978Z,4.80
2019-05-13T12:34:23.042Z,5.27
2019-05-13T12:37:05.833Z,4.83
2019-05-13T12:39:35.478Z,5.67
2019-05-13T12:42:05.173Z,5.53
2019-05-13T12:44:59.324Z,6.90
2019-05-13T12:47:06.246Z,5.50
2019-05-13T12:49:36.781Z,5.73
2019-05-13T12:52:06.550Z,5.20
2019-05-13T12:54:36.144Z,6.80
2019-05-13T12:57:11.843Z,6.97
2019-05-13T12:59:37.047Z,5.77
2019-05-13T13:02:06.635Z,5.23
2019-05-13T13:05:20.265Z,7.43
2019-05-13T13:08:11.996Z,6.60
2019-05-13T13:10:18.016Z,5.57
2019-05-13T13:12:47.700Z,5.47
2019-05-13T13:15:36.531Z,5.33
2019-05-13T13:17:48.931Z,5.97
2019-05-13T13:20:18.631Z,5.13
2019-05-13T13:22:48.209Z,6.03
2019-05-13T13:25:18.118Z,6.33
2019-05-13T13:28:09.500Z,6.30
2019-05-13T13:30:19.415Z,6.93
2019-05-13T13:32:54.217Z,4.77
2019-05-13T13:35:22.041Z,12.07
2019-05-13T13:37:53.007Z,6.00
2019-05-13T13:40:28.408Z,5.40
2019-05-13T13:42:54.200Z,22.03
2019-05-13T13:45:24.031Z,38.93
2019-05-13T13:48:03.215Z,18.37
2019-05-13T13:50:25.256Z,66.47
2019-05-13T13:52:55.665Z,58.77
2019-05-13T13:55:26.057Z,4.80
2019-05-13T13:57:56.919Z,40.17
2019-05-13T14:00:38.447Z,42.40
2019-05-13T14:02:58.104Z,5.70
2019-05-13T14:05:27.674Z,4.47
2019-05-13T14:06:25.465Z,7.97
2019-05-13T14:07:57.345Z,6.03
2019-05-13T14:10:26.945Z,4.87
2019-05-13T14:12:56.527Z,3.80
2019-05-13T14:15:26.152Z,4.50
2019-05-13T14:17:56.037Z,4.10
2019-05-13T14:20:25.633Z,4.63
2019-05-13T14:22:58.026Z,4.10
2019-05-13T14:25:26.560Z,6.17
2019-05-13T14:27:56.228Z,4.00
2019-05-13T14:30:26.231Z,4.57
2019-05-13T14:32:55.791Z,4.10
2019-05-13T14:35:25.385Z,3.73
2019-05-13T14:37:54.947Z,3.50
2019-05-13T14:40:24.601Z,3.40
2019-05-13T14:42:54.182Z,3.47
2019-05-13T14:45:24.115Z,3.57
2019-05-13T14:47:53.695Z,3.77
2019-05-13T14:50:23.285Z,3.70
2019-05-13T14:52:52.909Z,4.10
2019-05-13T14:55:22.484Z,2.93
2019-05-13T14:57:52.549Z,2.27
2019-05-13T15:00:22.931Z,3.13
2019-05-13T15:02:52.501Z,5.20
2019-05-13T15:05:22.259Z,3.63
2019-05-13T15:07:52.806Z,3.13
2019-05-13T15:10:22.689Z,3.87
2019-05-13T15:12:52.644Z,4.57
2019-05-13T15:15:22.493Z,2.90
2019-05-13T15:17:52.148Z,2.70
2019-05-13T15:20:21.945Z,3.53
2019-05-13T15:22:51.986Z,2.93
2019-05-13T15:25:22.271Z,2.80
2019-05-13T15:27:53.073Z,2.80
2019-05-13T15:30:22.958Z,3.50
2019-05-13T15:32:52.873Z,2.60
2019-05-13T15:35:22.496Z,2.47
2019-05-13T15:37:53.204Z,2.93
2019-05-13T15:40:22.868Z,3.30
2019-05-13T15:42:52.488Z,2.93
2019-05-13T15:45:22.150Z,3.00
2019-05-13T15:47:51.806Z,4.73
2019-05-13T15:50:21.587Z,3.80
2019-05-13T15:52:51.185Z,4.07
2019-05-13T15:55:21.400Z,4.97
2019-05-13T15:57:51.907Z,3.50
2019-05-13T16:00:22.063Z,4.23
2019-05-13T16:02:52.368Z,3.73
2019-05-13T16:05:22.071Z,3.37
2019-05-13T16:07:52.373Z,3.80
2019-05-13T16:10:22.224Z,3.50
2019-05-13T16:12:51.974Z,3.60
2019-05-13T16:15:21.832Z,5.47
2019-05-13T16:17:52.087Z,3.20
2019-05-13T16:20:22.018Z,3.50
2019-05-13T16:22:52.676Z,3.20
2019-05-13T16:25:22.401Z,3.60
2019-05-13T16:27:52.179Z,2.87
2019-05-13T16:30:22.900Z,3.77
2019-05-13T16:32:52.522Z,4.83
2019-05-13T16:35:22.275Z,3.57
2019-05-13T16:37:52.004Z,3.13
2019-05-13T16:40:22.360Z,4.10
2019-05-13T16:42:52.106Z,5.80
2019-05-13T16:45:21.926Z,2.83
2019-05-13T16:47:57.009Z,3.50
2019-05-13T16:50:22.786Z,5.17
2019-05-13T16:52:52.351Z,3.37
2019-05-13T16:55:22.047Z,3.73
2019-05-13T16:57:51.641Z,3.27
2019-05-13T17:00:21.622Z,3.10
2019-05-13T17:02:51.796Z,3.47
2019-05-13T17:05:21.703Z,4.43
2019-05-13T17:07:51.566Z,2.80
2019-05-13T17:10:22.518Z,4.50
2019-05-13T17:12:52.427Z,4.10
2019-05-13T17:15:22.215Z,5.13
2019-05-13T17:17:51.913Z,4.80
2019-05-13T17:20:21.659Z,5.97
2019-05-13T17:22:51.484Z,5.50
2019-05-13T17:25:21.051Z,3.97
2019-05-13T17:27:51.507Z,3.87
2019-05-13T17:30:22.050Z,5.00
2019-05-13T17:32:51.694Z,4.27
2019-05-13T17:35:21.999Z,4.47
2019-05-13T17:37:52.408Z,5.93
2019-05-13T17:40:22.582Z,3.93
2019-05-13T17:42:52.375Z,3.87
2019-05-13T17:45:22.158Z,4.27
2019-05-13T17:47:52.134Z,3.97
2019-05-13T17:50:22.377Z,7.60
2019-05-13T17:52:52.033Z,4.60
2019-05-13T17:55:22.320Z,5.53
2019-05-13T17:57:52.354Z,6.83
2019-05-13T18:01:12.065Z,5.87
2019-05-13T18:03:41.404Z,4.10
2019-05-13T18:06:11.483Z,4.17
2019-05-13T18:08:41.374Z,4.10
2019-05-13T18:11:11.503Z,4.50
2019-05-13T18:13:43.633Z,4.87
2019-05-13T18:16:12.738Z,5.37
2019-05-13T18:18:46.946Z,4.60
2019-05-13T18:21:13.713Z,5.83
2019-05-13T18:23:43.305Z,4.87
2019-05-13T18:26:16.054Z,4.73
2019-05-13T18:28:44.742Z,7.37
2019-05-13T18:31:14.399Z,5.50
2019-05-13T18:33:47.030Z,5.67
2019-05-13T18:36:22.299Z,5.30
2019-05-13T18:38:52.074Z,5.60
2019-05-13T18:41:21.672Z,5.37
2019-05-13T18:43:54.838Z,4.90
2019-05-13T18:46:22.693Z,4.70
2019-05-13T18:48:58.534Z,4.53
2019-05-13T18:51:23.651Z,5.47
2019-05-13T18:53:53.229Z,4.87
2019-05-13T18:56:22.804Z,5.07
2019-05-13T18:58:52.386Z,4.97
2019-05-13T19:01:21.959Z,5.40
2019-05-13T19:03:51.710Z,5.97
2019-05-13T19:06:22.366Z,5.20
2019-05-13T19:08:52.867Z,5.17
2019-05-13T19:11:24.404Z,4.63
2019-05-13T19:13:56.469Z,5.10
2019-05-13T19:16:27.025Z,5.40
2019-05-13T19:19:10.645Z,5.60
2019-05-13T19:21:31.146Z,6.50
2019-05-13T19:24:04.039Z,6.07
2019-05-13T19:26:33.650Z,6.60
2019-05-13T19:29:03.253Z,7.43
2019-05-13T19:31:32.816Z,6.27
2019-05-13T19:34:02.413Z,6.67
2019-05-13T19:36:32.018Z,6.40
2019-05-13T19:39:01.892Z,6.33
2019-05-13T19:41:31.604Z,6.57
2019-05-13T19:44:01.655Z,5.80
2019-05-13T19:46:31.543Z,7.53
2019-05-13T19:49:01.601Z,6.03
2019-05-13T19:51:32.286Z,6.63
2019-05-13T19:54:01.987Z,5.40
2019-05-13T19:56:32.005Z,5.53
2019-05-13T19:59:01.752Z,5.80
2019-05-13T20:01:32.174Z,6.30
2019-05-13T20:04:02.530Z,13.43
2019-05-13T20:06:32.236Z,10.40
2019-05-13T20:09:01.815Z,6.80
2019-05-13T20:11:31.395Z,6.47
2019-05-13T20:14:01.440Z,6.70
2019-05-13T20:16:32.097Z,6.53
2019-05-13T20:19:01.743Z,8.87
2019-05-13T20:21:31.992Z,8.20
2019-05-13T20:24:01.708Z,7.67
2019-05-13T20:26:32.265Z,7.70
2019-05-13T20:29:02.705Z,9.07
2019-05-13T20:31:32.313Z,8.23
2019-05-13T20:34:01.918Z,8.80
2019-05-13T20:36:31.750Z,8.33
2019-05-13T20:39:02.082Z,8.43
2019-05-13T20:41:31.892Z,8.67
2019-05-13T20:44:01.627Z,8.50
2019-05-13T20:46:32.739Z,8.83
2019-05-13T20:49:02.490Z,9.40
2019-05-13T20:51:32.144Z,8.67
2019-05-13T20:54:02.437Z,8.73
2019-05-13T20:56:32.217Z,9.10
2019-05-13T20:59:01.808Z,9.63
2019-05-13T21:01:31.406Z,9.17
2019-05-13T21:04:01.807Z,9.53
2019-05-13T21:06:31.647Z,10.30
2019-05-13T21:09:01.605Z,10.60
2019-05-13T21:11:31.353Z,9.37
2019-05-13T21:14:01.219Z,9.90
2019-05-13T21:16:30.935Z,9.27
2019-05-13T21:19:01.902Z,11.40
2019-05-13T21:21:31.603Z,10.00
2019-05-13T21:24:01.601Z,10.03
2019-05-13T21:26:31.537Z,10.40
2019-05-13T21:29:01.556Z,11.57
2019-05-13T21:31:31.168Z,10.50
2019-05-13T21:34:01.419Z,11.03
2019-05-13T21:36:31.162Z,10.53
2019-05-13T21:39:01.615Z,11.37
2019-05-13T21:41:31.684Z,10.80
2019-05-13T21:44:01.414Z,11.03
2019-05-13T21:46:30.973Z,11.10
2019-05-13T21:49:01.057Z,10.57
2019-05-13T21:51:31.512Z,12.03
2019-05-13T21:54:01.315Z,11.37
2019-05-13T21:56:31.854Z,12.43
2019-05-13T21:59:01.630Z,13.37
2019-05-13T22:01:31.562Z,13.57
2019-05-13T22:04:01.785Z,12.70
2019-05-13T22:06:32.283Z,15.20
2019-05-13T22:09:01.964Z,13.27
2019-05-13T22:11:34.717Z,13.50
2019-05-13T22:14:02.825Z,13.70
2019-05-13T22:16:32.426Z,13.60
2019-05-13T22:19:02.040Z,13.17
2019-05-13T22:21:31.717Z,14.07
2019-05-13T22:24:02.247Z,15.50
2019-05-13T22:26:31.905Z,14.50
2019-05-13T22:29:02.842Z,14.37
2019-05-13T22:31:32.608Z,13.97
2019-05-13T22:34:02.165Z,14.47
2019-05-13T22:36:31.922Z,14.87
2019-05-13T22:39:02.118Z,14.27
2019-05-13T22:41:31.764Z,13.80
2019-05-13T22:44:01.395Z,14.37
2019-05-13T22:46:32.256Z,14.40
2019-05-13T22:49:01.916Z,16.13
2019-05-13T22:51:32.181Z,15.80
2019-05-13T22:54:01.780Z,16.00
2019-05-13T22:56:31.981Z,17.03
2019-05-13T22:59:02.112Z,17.60
2019-05-13T23:01:32.395Z,18.30
2019-05-13T23:04:02.299Z,18.30
2019-05-13T23:06:32.223Z,18.80
2019-05-13T23:09:02.040Z,19.80
2019-05-13T23:11:31.607Z,20.40
2019-05-13T23:14:09.767Z,19.87
2019-05-13T23:16:32.508Z,21.33
2019-05-13T23:19:02.079Z,20.30
2019-05-13T23:21:31.728Z,17.90
2019-05-13T23:24:02.171Z,17.83
2019-05-13T23:26:31.852Z,17.97
2019-05-13T23:29:01.511Z,18.10
2019-05-13T23:31:31.102Z,18.23
2019-05-13T23:34:01.378Z,16.70
2019-05-13T23:36:31.623Z,16.83
2019-05-13T23:39:01.301Z,16.60
2019-05-13T23:41:30.908Z,17.33
2019-05-13T23:44:01.421Z,17.53
2019-05-13T23:46:31.479Z,16.40
2019-05-13T23:49:01.344Z,18.47
2019-05-13T23:51:32.183Z,17.57
2019-05-13T23:54:01.803Z,17.47
2019-05-13T23:56:31.410Z,17.30
2019-05-13T23:59:01.040Z,17.50
